sensor_id;sensor_type;location;lat;lon;timestamp;temperature;humidity
22635;DHT22;11484;50.858;4.384;2023-04-03T00:00:24;5.90;99.90
22635;DHT22;11484;50.858;4.384;2023-04-03T00:02:50;5.80;99.90
22635;DHT22;11484;50.858;4.384;2023-04-03T00:05:16;5.70;99.90
22635;DHT22;11484;50.858;4.384;2023-04-03T00:07:42;5.60;99.90
22635;DHT22;11484;50.858;4.384;2023-04-03T00:10:08;5.60;99.90
22635;DHT22;11484;50.858;4.384;2023-04-03T00:12:34;5.60;99.90
22635;DHT22;11484;50.858;4.384;2023-04-03T00:14:59;5.50;99.90
22635;DHT22;11484;50.858;4.384;2023-04-03T00:17:25;5.50;99.90
22635;DHT22;11484;50.858;4.384;2023-04-03T00:19:51;5.50;99.90
22635;DHT22;11484;50.858;4.384;2023-04-03T00:22:19;5.30;99.90
22635;DHT22;11484;50.858;4.384;2023-04-03T00:24:44;5.30;99.90
22635;DHT22;11484;50.858;4.384;2023-04-03T00:27:10;5.20;99.90
22635;DHT22;11484;50.858;4.384;2023-04-03T00:29:39;5.20;99.90
22635;DHT22;11484;50.858;4.384;2023-04-03T00:32:04;5.30;99.90
22635;DHT22;11484;50.858;4.384;2023-04-03T00:34:30;5.30;99.90
22635;DHT22;11484;50.858;4.384;2023-04-03T00:36:58;5.40;99.90
22635;DHT22;11484;50.858;4.384;2023-04-03T00:39:24;5.40;99.90
22635;DHT22;11484;50.858;4.384;2023-04-03T00:41:50;5.40;99.90
22635;DHT22;11484;50.858;4.384;2023-04-03T00:47:10;5.50;99.90
22635;DHT22;11484;50.858;4.384;2023-04-03T00:49:37;5.50;99.90
22635;DHT22;11484;50.858;4.384;2023-04-03T00:52:05;5.60;99.90
22635;DHT22;11484;50.858;4.384;2023-04-03T00:54:32;5.50;99.90
22635;DHT22;11484;50.858;4.384;2023-04-03T00:57:00;5.50;99.90
22635;DHT22;11484;50.858;4.384;2023-04-03T00:59:30;5.40;99.90
22635;DHT22;11484;50.858;4.384;2023-04-03T01:01:57;5.40;99.90
22635;DHT22;11484;50.858;4.384;2023-04-03T01:04:39;5.30;99.90
22635;DHT22;11484;50.858;4.384;2023-04-03T01:07:21;5.20;99.90
22635;DHT22;11484;50.858;4.384;2023-04-03T01:09:49;5.20;99.90
22635;DHT22;11484;50.858;4.384;2023-04-03T01:12:29;5.20;99.90
22635;DHT22;11484;50.858;4.384;2023-04-03T01:14:59;5.20;99.90
22635;DHT22;11484;50.858;4.384;2023-04-03T01:17:38;5.20;99.90
22635;DHT22;11484;50.858;4.384;2023-04-03T01:23:22;5.20;99.90
22635;DHT22;11484;50.858;4.384;2023-04-03T01:25:55;5.20;99.90
22635;DHT22;11484;50.858;4.384;2023-04-03T01:28:34;5.10;99.90
22635;DHT22;11484;50.858;4.384;2023-04-03T01:31:24;5.20;99.90
22635;DHT22;11484;50.858;4.384;2023-04-03T01:33:51;5.30;99.90
22635;DHT22;11484;50.858;4.384;2023-04-03T01:36:27;5.30;99.90
22635;DHT22;11484;50.858;4.384;2023-04-03T01:38:54;5.30;99.90
22635;DHT22;11484;50.858;4.384;2023-04-03T01:41:20;5.20;99.90
22635;DHT22;11484;50.858;4.384;2023-04-03T01:43:49;5.20;99.90
22635;DHT22;11484;50.858;4.384;2023-04-03T01:46:16;5.20;99.90
22635;DHT22;11484;50.858;4.384;2023-04-03T01:48:42;5.20;99.90
22635;DHT22;11484;50.858;4.384;2023-04-03T01:51:11;5.10;99.90
22635;DHT22;11484;50.858;4.384;2023-04-03T01:53:37;5.00;99.90
22635;DHT22;11484;50.858;4.384;2023-04-03T01:56:03;4.90;99.90
22635;DHT22;11484;50.858;4.384;2023-04-03T01:58:29;4.80;99.90
22635;DHT22;11484;50.858;4.384;2023-04-03T02:00:55;4.80;99.90
22635;DHT22;11484;50.858;4.384;2023-04-03T02:03:21;4.70;99.90
22635;DHT22;11484;50.858;4.384;2023-04-03T02:05:47;4.70;99.90
22635;DHT22;11484;50.858;4.384;2023-04-03T02:08:12;4.60;99.90
22635;DHT22;11484;50.858;4.384;2023-04-03T02:10:39;4.70;99.90
22635;DHT22;11484;50.858;4.384;2023-04-03T02:13:05;4.70;99.90
22635;DHT22;11484;50.858;4.384;2023-04-03T02:15:31;4.70;99.90
22635;DHT22;11484;50.858;4.384;2023-04-03T02:17:57;4.70;99.90
22635;DHT22;11484;50.858;4.384;2023-04-03T02:20:23;4.60;99.90
22635;DHT22;11484;50.858;4.384;2023-04-03T02:22:48;4.50;99.90
22635;DHT22;11484;50.858;4.384;2023-04-03T02:25:14;4.40;99.90
22635;DHT22;11484;50.858;4.384;2023-04-03T02:27:40;4.40;99.90
22635;DHT22;11484;50.858;4.384;2023-04-03T02:30:06;4.40;99.90
22635;DHT22;11484;50.858;4.384;2023-04-03T02:32:32;4.40;99.90
22635;DHT22;11484;50.858;4.384;2023-04-03T02:34:58;4.40;99.90
22635;DHT22;11484;50.858;4.384;2023-04-03T02:37:23;4.40;99.90
22635;DHT22;11484;50.858;4.384;2023-04-03T02:39:50;4.40;99.90
22635;DHT22;11484;50.858;4.384;2023-04-03T02:42:15;4.50;99.90
22635;DHT22;11484;50.858;4.384;2023-04-03T02:44:41;4.50;99.90
22635;DHT22;11484;50.858;4.384;2023-04-03T02:47:07;4.50;99.90
22635;DHT22;11484;50.858;4.384;2023-04-03T02:49:32;4.50;99.90
22635;DHT22;11484;50.858;4.384;2023-04-03T02:51:58;4.40;99.90
22635;DHT22;11484;50.858;4.384;2023-04-03T02:54:24;4.40;99.90
22635;DHT22;11484;50.858;4.384;2023-04-03T02:56:53;4.40;99.90
22635;DHT22;11484;50.858;4.384;2023-04-03T02:59:19;4.30;99.90
22635;DHT22;11484;50.858;4.384;2023-04-03T03:01:46;4.40;99.90
22635;DHT22;11484;50.858;4.384;2023-04-03T03:04:11;4.40;99.90
22635;DHT22;11484;50.858;4.384;2023-04-03T03:06:37;4.30;99.90
22635;DHT22;11484;50.858;4.384;2023-04-03T03:09:03;4.30;99.90
22635;DHT22;11484;50.858;4.384;2023-04-03T03:11:29;4.40;99.90
22635;DHT22;11484;50.858;4.384;2023-04-03T03:13:56;4.30;99.90
22635;DHT22;11484;50.858;4.384;2023-04-03T03:16:22;4.20;99.90
22635;DHT22;11484;50.858;4.384;2023-04-03T03:18:47;4.10;99.90
22635;DHT22;11484;50.858;4.384;2023-04-03T03:21:13;4.10;99.90
22635;DHT22;11484;50.858;4.384;2023-04-03T03:23:42;4.10;99.90
22635;DHT22;11484;50.858;4.384;2023-04-03T03:26:10;4.20;99.90
22635;DHT22;11484;50.858;4.384;2023-04-03T03:28:38;4.30;99.90
22635;DHT22;11484;50.858;4.384;2023-04-03T03:31:04;4.30;99.90
22635;DHT22;11484;50.858;4.384;2023-04-03T03:33:30;4.20;99.90
22635;DHT22;11484;50.858;4.384;2023-04-03T03:35:56;4.20;99.90
22635;DHT22;11484;50.858;4.384;2023-04-03T03:38:23;4.00;99.90
22635;DHT22;11484;50.858;4.384;2023-04-03T03:40:50;4.00;99.90
22635;DHT22;11484;50.858;4.384;2023-04-03T03:43:16;4.00;99.90
22635;DHT22;11484;50.858;4.384;2023-04-03T03:45:43;4.00;99.90
22635;DHT22;11484;50.858;4.384;2023-04-03T03:48:09;4.00;99.90
22635;DHT22;11484;50.858;4.384;2023-04-03T03:50:34;3.90;99.90
22635;DHT22;11484;50.858;4.384;2023-04-03T03:53:00;4.00;99.90
22635;DHT22;11484;50.858;4.384;2023-04-03T03:55:26;4.00;99.90
22635;DHT22;11484;50.858;4.384;2023-04-03T03:57:53;4.00;99.90
22635;DHT22;11484;50.858;4.384;2023-04-03T04:00:19;4.10;99.90
22635;DHT22;11484;50.858;4.384;2023-04-03T04:02:45;4.20;99.90
22635;DHT22;11484;50.858;4.384;2023-04-03T04:05:12;4.20;99.90
22635;DHT22;11484;50.858;4.384;2023-04-03T04:07:37;4.20;99.90
22635;DHT22;11484;50.858;4.384;2023-04-03T04:10:03;4.20;99.90
22635;DHT22;11484;50.858;4.384;2023-04-03T04:12:29;4.20;99.90
22635;DHT22;11484;50.858;4.384;2023-04-03T04:14:55;4.20;99.90
22635;DHT22;11484;50.858;4.384;2023-04-03T04:17:21;4.10;99.90
22635;DHT22;11484;50.858;4.384;2023-04-03T04:19:47;4.10;99.90
22635;DHT22;11484;50.858;4.384;2023-04-03T04:22:13;4.00;99.90
22635;DHT22;11484;50.858;4.384;2023-04-03T04:24:38;4.00;99.90
22635;DHT22;11484;50.858;4.384;2023-04-03T04:27:04;4.00;99.90
22635;DHT22;11484;50.858;4.384;2023-04-03T04:29:30;4.00;99.90
22635;DHT22;11484;50.858;4.384;2023-04-03T04:32:01;4.10;99.90
22635;DHT22;11484;50.858;4.384;2023-04-03T04:34:30;4.10;99.90
22635;DHT22;11484;50.858;4.384;2023-04-03T04:36:58;4.10;99.90
22635;DHT22;11484;50.858;4.384;2023-04-03T04:39:24;4.00;99.90
22635;DHT22;11484;50.858;4.384;2023-04-03T04:41:50;4.00;99.90
22635;DHT22;11484;50.858;4.384;2023-04-03T04:44:16;4.10;99.90
22635;DHT22;11484;50.858;4.384;2023-04-03T04:46:44;4.10;99.90
22635;DHT22;11484;50.858;4.384;2023-04-03T04:49:11;4.10;99.90
22635;DHT22;11484;50.858;4.384;2023-04-03T04:51:36;4.10;99.90
22635;DHT22;11484;50.858;4.384;2023-04-03T04:54:02;3.90;99.90
22635;DHT22;11484;50.858;4.384;2023-04-03T04:56:28;3.80;99.90
22635;DHT22;11484;50.858;4.384;2023-04-03T04:58:54;3.70;99.90
22635;DHT22;11484;50.858;4.384;2023-04-03T05:01:19;3.80;99.90
22635;DHT22;11484;50.858;4.384;2023-04-03T05:03:45;3.80;99.90
22635;DHT22;11484;50.858;4.384;2023-04-03T05:06:11;3.80;99.90
22635;DHT22;11484;50.858;4.384;2023-04-03T05:08:37;3.80;99.90
22635;DHT22;11484;50.858;4.384;2023-04-03T05:11:02;3.80;99.90
22635;DHT22;11484;50.858;4.384;2023-04-03T05:13:28;3.90;99.90
22635;DHT22;11484;50.858;4.384;2023-04-03T05:15:54;4.00;99.90
22635;DHT22;11484;50.858;4.384;2023-04-03T05:18:20;4.00;99.90
22635;DHT22;11484;50.858;4.384;2023-04-03T05:20:48;4.10;99.90
22635;DHT22;11484;50.858;4.384;2023-04-03T05:23:14;4.10;99.90
22635;DHT22;11484;50.858;4.384;2023-04-03T05:25:40;4.00;99.90
22635;DHT22;11484;50.858;4.384;2023-04-03T05:28:06;3.90;99.90
22635;DHT22;11484;50.858;4.384;2023-04-03T05:30:32;3.80;99.90
22635;DHT22;11484;50.858;4.384;2023-04-03T05:32:58;3.80;99.90
22635;DHT22;11484;50.858;4.384;2023-04-03T05:35:24;3.80;99.90
22635;DHT22;11484;50.858;4.384;2023-04-03T05:37:50;3.90;99.90
22635;DHT22;11484;50.858;4.384;2023-04-03T05:40:18;4.00;99.90
22635;DHT22;11484;50.858;4.384;2023-04-03T05:42:44;4.10;99.90
22635;DHT22;11484;50.858;4.384;2023-04-03T05:45:10;4.10;99.90
22635;DHT22;11484;50.858;4.384;2023-04-03T05:47:36;4.20;99.90
22635;DHT22;11484;50.858;4.384;2023-04-03T05:50:03;4.20;99.90
22635;DHT22;11484;50.858;4.384;2023-04-03T05:52:33;4.20;99.90
22635;DHT22;11484;50.858;4.384;2023-04-03T05:54:59;4.30;99.90
22635;DHT22;11484;50.858;4.384;2023-04-03T05:57:25;4.30;99.90
22635;DHT22;11484;50.858;4.384;2023-04-03T05:59:50;4.20;99.90
22635;DHT22;11484;50.858;4.384;2023-04-03T06:02:22;4.10;99.90
22635;DHT22;11484;50.858;4.384;2023-04-03T06:04:48;4.00;99.90
22635;DHT22;11484;50.858;4.384;2023-04-03T06:07:20;4.00;99.90
22635;DHT22;11484;50.858;4.384;2023-04-03T06:09:48;4.00;99.90
22635;DHT22;11484;50.858;4.384;2023-04-03T06:12:13;4.20;99.90
22635;DHT22;11484;50.858;4.384;2023-04-03T06:14:40;4.20;99.90
22635;DHT22;11484;50.858;4.384;2023-04-03T06:17:06;4.30;99.90
22635;DHT22;11484;50.858;4.384;2023-04-03T06:19:33;4.40;99.90
22635;DHT22;11484;50.858;4.384;2023-04-03T06:21:59;4.50;99.90
22635;DHT22;11484;50.858;4.384;2023-04-03T06:24:25;4.60;99.90
22635;DHT22;11484;50.858;4.384;2023-04-03T06:26:52;4.80;99.90
22635;DHT22;11484;50.858;4.384;2023-04-03T06:29:19;5.00;99.90
22635;DHT22;11484;50.858;4.384;2023-04-03T06:31:45;5.00;99.90
22635;DHT22;11484;50.858;4.384;2023-04-03T06:34:11;5.20;99.90
22635;DHT22;11484;50.858;4.384;2023-04-03T06:36:38;5.40;99.90
22635;DHT22;11484;50.858;4.384;2023-04-03T06:39:05;5.70;99.90
22635;DHT22;11484;50.858;4.384;2023-04-03T06:41:31;6.10;99.90
22635;DHT22;11484;50.858;4.384;2023-04-03T06:43:59;6.30;99.90
22635;DHT22;11484;50.858;4.384;2023-04-03T06:46:28;6.40;99.90
22635;DHT22;11484;50.858;4.384;2023-04-03T06:48:54;6.50;99.90
22635;DHT22;11484;50.858;4.384;2023-04-03T06:51:25;6.90;99.90
22635;DHT22;11484;50.858;4.384;2023-04-03T06:53:54;7.70;99.90
22635;DHT22;11484;50.858;4.384;2023-04-03T06:56:20;8.30;99.90
22635;DHT22;11484;50.858;4.384;2023-04-03T06:58:46;9.10;99.90
22635;DHT22;11484;50.858;4.384;2023-04-03T07:01:14;9.80;99.90
22635;DHT22;11484;50.858;4.384;2023-04-03T07:03:40;11.20;99.90
22635;DHT22;11484;50.858;4.384;2023-04-03T07:06:07;12.30;99.90
22635;DHT22;11484;50.858;4.384;2023-04-03T07:08:34;13.20;99.50
22635;DHT22;11484;50.858;4.384;2023-04-03T07:11:00;14.40;95.80
22635;DHT22;11484;50.858;4.384;2023-04-03T07:13:26;15.20;92.00
22635;DHT22;11484;50.858;4.384;2023-04-03T07:15:52;15.30;91.50
22635;DHT22;11484;50.858;4.384;2023-04-03T07:18:18;16.20;86.50
22635;DHT22;11484;50.858;4.384;2023-04-03T07:20:45;16.20;85.10
22635;DHT22;11484;50.858;4.384;2023-04-03T07:23:11;16.20;84.10
22635;DHT22;11484;50.858;4.384;2023-04-03T07:25:37;16.60;79.80
22635;DHT22;11484;50.858;4.384;2023-04-03T07:28:03;15.60;78.40
22635;DHT22;11484;50.858;4.384;2023-04-03T07:30:29;14.70;82.60
22635;DHT22;11484;50.858;4.384;2023-04-03T07:32:55;14.50;84.80
22635;DHT22;11484;50.858;4.384;2023-04-03T07:35:21;15.30;83.20
22635;DHT22;11484;50.858;4.384;2023-04-03T07:37:46;16.00;80.00
22635;DHT22;11484;50.858;4.384;2023-04-03T07:40:12;16.10;80.70
22635;DHT22;11484;50.858;4.384;2023-04-03T07:42:38;16.70;77.10
22635;DHT22;11484;50.858;4.384;2023-04-03T07:45:04;16.80;76.20
22635;DHT22;11484;50.858;4.384;2023-04-03T07:47:30;17.40;75.30
22635;DHT22;11484;50.858;4.384;2023-04-03T07:49:57;17.50;73.40
22635;DHT22;11484;50.858;4.384;2023-04-03T07:52:23;16.90;74.30
22635;DHT22;11484;50.858;4.384;2023-04-03T07:54:50;16.90;72.70
22635;DHT22;11484;50.858;4.384;2023-04-03T07:57:16;17.60;72.30
22635;DHT22;11484;50.858;4.384;2023-04-03T07:59:42;18.30;70.70
22635;DHT22;11484;50.858;4.384;2023-04-03T08:02:11;17.40;69.50
22635;DHT22;11484;50.858;4.384;2023-04-03T08:04:37;16.00;72.50
22635;DHT22;11484;50.858;4.384;2023-04-03T08:07:03;16.00;73.20
22635;DHT22;11484;50.858;4.384;2023-04-03T08:09:29;15.40;73.20
22635;DHT22;11484;50.858;4.384;2023-04-03T08:11:55;14.80;76.80
22635;DHT22;11484;50.858;4.384;2023-04-03T08:14:20;15.20;76.00
22635;DHT22;11484;50.858;4.384;2023-04-03T08:16:47;15.70;75.30
22635;DHT22;11484;50.858;4.384;2023-04-03T08:19:14;16.10;75.50
22635;DHT22;11484;50.858;4.384;2023-04-03T08:21:41;15.80;74.60
22635;DHT22;11484;50.858;4.384;2023-04-03T08:24:07;15.80;74.80
22635;DHT22;11484;50.858;4.384;2023-04-03T08:26:33;15.30;75.00
22635;DHT22;11484;50.858;4.384;2023-04-03T08:28:59;15.10;75.50
22635;DHT22;11484;50.858;4.384;2023-04-03T08:31:25;15.00;75.50
22635;DHT22;11484;50.858;4.384;2023-04-03T08:33:51;14.40;77.20
22635;DHT22;11484;50.858;4.384;2023-04-03T08:36:25;14.10;78.00
22635;DHT22;11484;50.858;4.384;2023-04-03T08:38:52;13.50;80.50
22635;DHT22;11484;50.858;4.384;2023-04-03T08:41:20;13.40;82.00
22635;DHT22;11484;50.858;4.384;2023-04-03T08:44:15;13.70;80.40
22635;DHT22;11484;50.858;4.384;2023-04-03T08:46:54;13.90;80.60
22635;DHT22;11484;50.858;4.384;2023-04-03T08:52:58;14.50;78.10
22635;DHT22;11484;50.858;4.384;2023-04-03T08:55:01;14.20;80.70
22635;DHT22;11484;50.858;4.384;2023-04-03T08:57:35;14.90;78.40
22635;DHT22;11484;50.858;4.384;2023-04-03T09:02:48;15.40;75.00
22635;DHT22;11484;50.858;4.384;2023-04-03T09:08:28;16.60;72.50
22635;DHT22;11484;50.858;4.384;2023-04-03T09:11:27;16.60;70.50
22635;DHT22;11484;50.858;4.384;2023-04-03T09:22:26;16.50;66.20
22635;DHT22;11484;50.858;4.384;2023-04-03T09:24:58;15.90;68.40
22635;DHT22;11484;50.858;4.384;2023-04-03T09:27:25;16.20;67.10
22635;DHT22;11484;50.858;4.384;2023-04-03T09:29:53;16.30;67.80
22635;DHT22;11484;50.858;4.384;2023-04-03T09:32:29;16.00;68.30
22635;DHT22;11484;50.858;4.384;2023-04-03T09:34:58;16.30;64.10
22635;DHT22;11484;50.858;4.384;2023-04-03T09:38:14;16.40;63.50
22635;DHT22;11484;50.858;4.384;2023-04-03T09:40:50;16.80;64.10
22635;DHT22;11484;50.858;4.384;2023-04-03T09:43:28;16.50;63.10
22635;DHT22;11484;50.858;4.384;2023-04-03T09:46:17;15.40;66.20
22635;DHT22;11484;50.858;4.384;2023-04-03T09:48:50;15.70;67.20
22635;DHT22;11484;50.858;4.384;2023-04-03T09:51:16;16.80;64.20
22635;DHT22;11484;50.858;4.384;2023-04-03T09:53:44;16.40;65.10
22635;DHT22;11484;50.858;4.384;2023-04-03T09:58:44;15.30;66.40
22635;DHT22;11484;50.858;4.384;2023-04-03T10:01:30;16.00;65.80
22635;DHT22;11484;50.858;4.384;2023-04-03T10:04:22;15.80;67.60
22635;DHT22;11484;50.858;4.384;2023-04-03T10:06:51;15.80;66.60
22635;DHT22;11484;50.858;4.384;2023-04-03T10:09:29;16.00;65.00
22635;DHT22;11484;50.858;4.384;2023-04-03T10:12:09;16.40;63.60
22635;DHT22;11484;50.858;4.384;2023-04-03T10:15:00;16.20;62.40
22635;DHT22;11484;50.858;4.384;2023-04-03T10:22:52;14.00;69.30
22635;DHT22;11484;50.858;4.384;2023-04-03T10:25:33;14.10;68.10
22635;DHT22;11484;50.858;4.384;2023-04-03T10:28:35;14.40;67.30
22635;DHT22;11484;50.858;4.384;2023-04-03T10:33:52;14.40;65.90
22635;DHT22;11484;50.858;4.384;2023-04-03T10:39:19;14.20;64.80
22635;DHT22;11484;50.858;4.384;2023-04-03T10:42:00;14.10;65.50
22635;DHT22;11484;50.858;4.384;2023-04-03T10:44:40;13.60;66.70
22635;DHT22;11484;50.858;4.384;2023-04-03T10:47:13;13.20;67.80
22635;DHT22;11484;50.858;4.384;2023-04-03T10:57:56;12.10;70.50
22635;DHT22;11484;50.858;4.384;2023-04-03T11:00:43;11.90;68.80
22635;DHT22;11484;50.858;4.384;2023-04-03T11:03:27;11.80;67.70
22635;DHT22;11484;50.858;4.384;2023-04-03T11:05:55;11.70;67.90
22635;DHT22;11484;50.858;4.384;2023-04-03T11:08:35;11.60;67.40
22635;DHT22;11484;50.858;4.384;2023-04-03T11:11:09;11.50;67.40
22635;DHT22;11484;50.858;4.384;2023-04-03T11:14:21;11.30;67.30
22635;DHT22;11484;50.858;4.384;2023-04-03T11:24:54;11.10;69.20
22635;DHT22;11484;50.858;4.384;2023-04-03T11:27:23;11.10;72.20
22635;DHT22;11484;50.858;4.384;2023-04-03T11:29:50;11.10;73.60
22635;DHT22;11484;50.858;4.384;2023-04-03T11:32:41;10.90;74.70
22635;DHT22;11484;50.858;4.384;2023-04-03T11:35:10;11.00;73.10
22635;DHT22;11484;50.858;4.384;2023-04-03T11:37:41;11.10;72.70
22635;DHT22;11484;50.858;4.384;2023-04-03T11:42:45;11.20;72.10
22635;DHT22;11484;50.858;4.384;2023-04-03T11:47:51;11.00;71.40
22635;DHT22;11484;50.858;4.384;2023-04-03T12:13:42;10.50;72.10
22635;DHT22;11484;50.858;4.384;2023-04-03T12:27:01;10.30;60.50
22635;DHT22;11484;50.858;4.384;2023-04-03T12:29:34;10.30;59.90
22635;DHT22;11484;50.858;4.384;2023-04-03T12:32:43;10.40;60.50
22635;DHT22;11484;50.858;4.384;2023-04-03T12:35:30;10.30;58.50
22635;DHT22;11484;50.858;4.384;2023-04-03T12:38:25;10.20;59.50
22635;DHT22;11484;50.858;4.384;2023-04-03T12:41:37;10.30;60.00
22635;DHT22;11484;50.858;4.384;2023-04-03T12:46:53;10.50;61.10
22635;DHT22;11484;50.858;4.384;2023-04-03T12:51:54;10.60;61.40
22635;DHT22;11484;50.858;4.384;2023-04-03T12:54:30;10.80;60.80
22635;DHT22;11484;50.858;4.384;2023-04-03T12:59:36;10.50;57.80
22635;DHT22;11484;50.858;4.384;2023-04-03T13:04:45;10.30;59.20
22635;DHT22;11484;50.858;4.384;2023-04-03T13:12:32;10.40;59.10
22635;DHT22;11484;50.858;4.384;2023-04-03T13:15:16;10.30;58.60
22635;DHT22;11484;50.858;4.384;2023-04-03T13:17:43;10.30;57.60
22635;DHT22;11484;50.858;4.384;2023-04-03T13:20:17;10.30;56.80
22635;DHT22;11484;50.858;4.384;2023-04-03T13:25:23;10.40;56.50
22635;DHT22;11484;50.858;4.384;2023-04-03T13:27:49;10.50;56.50
22635;DHT22;11484;50.858;4.384;2023-04-03T13:30:26;10.60;57.10
22635;DHT22;11484;50.858;4.384;2023-04-03T13:32:54;10.50;55.70
22635;DHT22;11484;50.858;4.384;2023-04-03T13:35:37;10.50;55.00
22635;DHT22;11484;50.858;4.384;2023-04-03T13:40:56;10.50;54.40
22635;DHT22;11484;50.858;4.384;2023-04-03T13:43:26;10.40;55.20
22635;DHT22;11484;50.858;4.384;2023-04-03T13:48:21;10.50;55.90
22635;DHT22;11484;50.858;4.384;2023-04-03T13:51:00;10.50;57.00
22635;DHT22;11484;50.858;4.384;2023-04-03T13:53:29;10.40;58.10
22635;DHT22;11484;50.858;4.384;2023-04-03T13:58:30;10.40;58.60
22635;DHT22;11484;50.858;4.384;2023-04-03T14:01:06;10.50;59.20
22635;DHT22;11484;50.858;4.384;2023-04-03T14:03:57;10.50;58.00
22635;DHT22;11484;50.858;4.384;2023-04-03T14:06:23;10.60;57.70
22635;DHT22;11484;50.858;4.384;2023-04-03T14:08:50;10.70;58.20
22635;DHT22;11484;50.858;4.384;2023-04-03T14:11:20;10.80;57.00
22635;DHT22;11484;50.858;4.384;2023-04-03T14:13:49;10.80;57.20
22635;DHT22;11484;50.858;4.384;2023-04-03T14:16:20;10.60;56.70
22635;DHT22;11484;50.858;4.384;2023-04-03T14:18:48;10.50;57.70
22635;DHT22;11484;50.858;4.384;2023-04-03T14:21:15;10.60;58.20
22635;DHT22;11484;50.858;4.384;2023-04-03T14:23:41;10.60;57.70
22635;DHT22;11484;50.858;4.384;2023-04-03T14:26:19;10.70;57.20
22635;DHT22;11484;50.858;4.384;2023-04-03T14:28:48;10.70;58.20
22635;DHT22;11484;50.858;4.384;2023-04-03T14:31:15;10.90;59.00
22635;DHT22;11484;50.858;4.384;2023-04-03T14:33:41;10.80;58.30
22635;DHT22;11484;50.858;4.384;2023-04-03T14:36:27;10.90;57.20
22635;DHT22;11484;50.858;4.384;2023-04-03T14:38:53;10.80;56.80
22635;DHT22;11484;50.858;4.384;2023-04-03T14:41:22;10.80;57.20
22635;DHT22;11484;50.858;4.384;2023-04-03T14:43:49;10.80;57.20
22635;DHT22;11484;50.858;4.384;2023-04-03T14:46:29;10.80;56.20
22635;DHT22;11484;50.858;4.384;2023-04-03T14:48:56;10.80;56.50
22635;DHT22;11484;50.858;4.384;2023-04-03T14:51:21;10.80;56.90
22635;DHT22;11484;50.858;4.384;2023-04-03T14:53:48;10.80;57.90
22635;DHT22;11484;50.858;4.384;2023-04-03T14:56:18;10.70;57.50
22635;DHT22;11484;50.858;4.384;2023-04-03T14:58:44;10.70;57.40
22635;DHT22;11484;50.858;4.384;2023-04-03T15:01:13;10.80;57.90
22635;DHT22;11484;50.858;4.384;2023-04-03T15:03:39;10.90;57.60
22635;DHT22;11484;50.858;4.384;2023-04-03T15:06:05;11.00;58.20
22635;DHT22;11484;50.858;4.384;2023-04-03T15:08:31;11.00;56.80
22635;DHT22;11484;50.858;4.384;2023-04-03T15:10:57;10.90;56.10
22635;DHT22;11484;50.858;4.384;2023-04-03T15:13:24;11.00;57.10
22635;DHT22;11484;50.858;4.384;2023-04-03T15:15:51;11.10;56.50
22635;DHT22;11484;50.858;4.384;2023-04-03T15:18:20;11.00;55.70
22635;DHT22;11484;50.858;4.384;2023-04-03T15:20:47;11.00;55.60
22635;DHT22;11484;50.858;4.384;2023-04-03T15:23:14;11.00;56.00
22635;DHT22;11484;50.858;4.384;2023-04-03T15:25:45;11.00;56.60
22635;DHT22;11484;50.858;4.384;2023-04-03T15:28:22;10.90;55.50
22635;DHT22;11484;50.858;4.384;2023-04-03T15:30:48;10.80;55.20
22635;DHT22;11484;50.858;4.384;2023-04-03T15:33:13;10.80;55.80
22635;DHT22;11484;50.858;4.384;2023-04-03T15:35:41;11.00;56.60
22635;DHT22;11484;50.858;4.384;2023-04-03T15:38:07;10.90;55.10
22635;DHT22;11484;50.858;4.384;2023-04-03T15:40:33;10.80;55.60
22635;DHT22;11484;50.858;4.384;2023-04-03T15:42:59;10.80;55.60
22635;DHT22;11484;50.858;4.384;2023-04-03T15:45:24;10.80;56.10
22635;DHT22;11484;50.858;4.384;2023-04-03T15:47:51;10.80;55.40
22635;DHT22;11484;50.858;4.384;2023-04-03T15:50:16;10.80;54.70
22635;DHT22;11484;50.858;4.384;2023-04-03T15:52:42;10.80;55.40
22635;DHT22;11484;50.858;4.384;2023-04-03T15:55:08;10.90;56.20
22635;DHT22;11484;50.858;4.384;2023-04-03T15:57:34;10.80;56.10
22635;DHT22;11484;50.858;4.384;2023-04-03T16:00:00;10.80;56.90
22635;DHT22;11484;50.858;4.384;2023-04-03T16:02:25;10.80;57.90
22635;DHT22;11484;50.858;4.384;2023-04-03T16:04:54;10.80;58.10
22635;DHT22;11484;50.858;4.384;2023-04-03T16:07:20;10.60;57.20
22635;DHT22;11484;50.858;4.384;2023-04-03T16:09:46;10.50;58.10
22635;DHT22;11484;50.858;4.384;2023-04-03T16:12:12;10.50;58.60
22635;DHT22;11484;50.858;4.384;2023-04-03T16:14:37;10.60;58.30
22635;DHT22;11484;50.858;4.384;2023-04-03T16:17:03;10.60;58.90
22635;DHT22;11484;50.858;4.384;2023-04-03T16:19:29;10.50;59.30
22635;DHT22;11484;50.858;4.384;2023-04-03T16:21:56;10.60;59.70
22635;DHT22;11484;50.858;4.384;2023-04-03T16:24:22;10.60;59.20
22635;DHT22;11484;50.858;4.384;2023-04-03T16:26:48;10.70;60.20
22635;DHT22;11484;50.858;4.384;2023-04-03T16:29:13;10.60;59.80
22635;DHT22;11484;50.858;4.384;2023-04-03T16:31:39;10.60;60.00
22635;DHT22;11484;50.858;4.384;2023-04-03T16:34:05;10.60;60.30
22635;DHT22;11484;50.858;4.384;2023-04-03T16:36:31;10.50;60.50
22635;DHT22;11484;50.858;4.384;2023-04-03T16:38:56;10.50;60.30
22635;DHT22;11484;50.858;4.384;2023-04-03T16:41:22;10.50;60.80
22635;DHT22;11484;50.858;4.384;2023-04-03T16:43:48;10.50;60.90
22635;DHT22;11484;50.858;4.384;2023-04-03T16:46:15;10.60;61.40
22635;DHT22;11484;50.858;4.384;2023-04-03T16:48:40;10.60;61.90
22635;DHT22;11484;50.858;4.384;2023-04-03T16:51:06;10.60;62.30
22635;DHT22;11484;50.858;4.384;2023-04-03T16:53:32;10.50;62.40
22635;DHT22;11484;50.858;4.384;2023-04-03T16:55:58;10.60;63.00
22635;DHT22;11484;50.858;4.384;2023-04-03T16:58:24;10.60;62.90
22635;DHT22;11484;50.858;4.384;2023-04-03T17:00:50;10.60;63.50
22635;DHT22;11484;50.858;4.384;2023-04-03T17:03:16;10.40;63.20
22635;DHT22;11484;50.858;4.384;2023-04-03T17:05:41;10.40;63.00
22635;DHT22;11484;50.858;4.384;2023-04-03T17:08:09;10.50;62.80
22635;DHT22;11484;50.858;4.384;2023-04-03T17:10:34;10.40;62.80
22635;DHT22;11484;50.858;4.384;2023-04-03T17:13:00;10.30;62.80
22635;DHT22;11484;50.858;4.384;2023-04-03T17:15:26;10.30;63.30
22635;DHT22;11484;50.858;4.384;2023-04-03T17:17:53;10.20;63.90
22635;DHT22;11484;50.858;4.384;2023-04-03T17:20:19;10.20;64.50
22635;DHT22;11484;50.858;4.384;2023-04-03T17:22:45;10.10;65.30
22635;DHT22;11484;50.858;4.384;2023-04-03T17:25:11;10.10;64.90
22635;DHT22;11484;50.858;4.384;2023-04-03T17:27:37;10.00;65.90
22635;DHT22;11484;50.858;4.384;2023-04-03T17:30:04;10.00;65.60
22635;DHT22;11484;50.858;4.384;2023-04-03T17:32:30;10.00;64.60
22635;DHT22;11484;50.858;4.384;2023-04-03T17:34:55;9.90;64.40
22635;DHT22;11484;50.858;4.384;2023-04-03T17:37:21;9.80;65.40
22635;DHT22;11484;50.858;4.384;2023-04-03T17:39:47;9.80;65.60
22635;DHT22;11484;50.858;4.384;2023-04-03T17:42:12;9.70;66.30
22635;DHT22;11484;50.858;4.384;2023-04-03T17:44:38;9.70;66.50
22635;DHT22;11484;50.858;4.384;2023-04-03T17:47:04;9.70;68.00